• Join FlightAware (Why Join?)
  • Login
  • US Flag 
04:22PM EST


 

Airport Tracker/Info


-or-


 

Live Flight TrackerFlight Track Log ✈ DAL110 ✈ 02-Jul-2013 ✈ KATL - KLAX

Flight Track Log - Related Links

Times and Time Zones

All times are in EDT time to prevent confusion due to time zone crossing. See the DAL110 flight status page for this flight to view local times or setup timezone preferences in your user account.

Time Position Orientation Groundspeed Altitude Reporting Facility
EDT Latitude Longitude Course Direction KTS MPH feet Rate Location/Type
08:47AM 33.6500 -84.3667 270° West 194 223 2,900  Level Atlanta TRACON
08:48AM 33.6833 -84.2833 64° Northeast 273 314 4,600 2,460 Climbing Atlanta TRACON
08:49AM 33.7500 -84.2833 360° North 295 339 7,400 2,400 Climbing Atlanta TRACON
08:50AM 33.8000 -84.5359 270° West  Level FlightAware Approximate
08:50AM 33.8125 -84.4214 299° West 268 308 11,200  Level Atlanta Center
08:51AM 33.8001 -84.6822 270° West  Level FlightAware Approximate
08:51AM 33.8100 -84.5464 269° West 336 387 13,200  Level Atlanta Center
08:52AM 33.8001 -84.8285 270° West  Level FlightAware Approximate
08:52AM 33.8114 -84.6714 271° West 366 421 15,700  Level Atlanta Center
08:53AM 33.8086 -84.7989 269° West 378 435 17,900 2,040 Climbing Atlanta Center
08:54AM 33.8056 -84.9239 268° West 397 457 19,800 1,800 Climbing Atlanta Center
08:55AM 33.7881 -85.0536 261° West 408 470 21,500 1,560 Climbing Atlanta Center
08:56AM 33.7700 -85.1908 261° West 413 475 23,000 1,560 Climbing Atlanta Center
08:57AM 33.7853 -85.3361 277° West 420 483 24,700 1,560 Climbing Atlanta Center
08:58AM 33.8128 -85.4939 282° West 438 504 26,200 1,500 Climbing Atlanta Center
08:59AM 33.8381 -85.6444 281° West 451 519 27,700 1,500 Climbing Atlanta Center
09:00AM 33.8842 -85.7903 291° West 456 525 29,200 1,500 Climbing Atlanta Center
09:01AM 33.9219 -85.9114 291° West 456 525 30,700 1,500 Climbing Atlanta Center
09:02AM 33.9656 -86.0525 290° West 451 519 32,200 1,440 Climbing Atlanta Center
09:03AM 34.0092 -86.1939 290° West 451 519 33,600 1,320 Climbing Atlanta Center
09:04AM 34.0483 -86.3328 289° West 446 513 34,900 1,200 Climbing Atlanta Center
09:05AM 34.0853 -86.4717 288° West 446 513 36,000 540 Climbing Atlanta Center
09:06AM 34.1244 -86.6058 289° West 435 501 36,000  Level Atlanta Center
09:07AM 34.1611 -86.7400 288° West 430 495 36,000  Level Atlanta Center
09:08AM 34.1828 -86.8169 289° West 426 490 36,000  Level Memphis Center
09:09AM 34.2197 -86.9486 289° West 437 503 36,000  Level Memphis Center
09:10AM 34.2614 -87.0978 289° West 431 496 36,000  Level Memphis Center
09:11AM 34.3006 -87.2469 288° West 438 504 36,000  Level Memphis Center
09:12AM 34.3394 -87.3839 289° West 448 516 36,000  Level Memphis Center
09:13AM 34.3761 -87.5236 288° West 441 507 36,000  Level Memphis Center
09:14AM 34.4144 -87.6533 290° West 422 486 36,000  Level Memphis Center
09:15AM 34.4486 -87.7906 287° West 422 486 36,000  Level Memphis Center
09:16AM 34.4847 -87.9206 289° West 415 478 36,000 300 Level Memphis Center
09:17AM 34.5206 -88.0506 289° West 415 478 36,700 900 Climbing Memphis Center
09:18AM 34.5564 -88.1908 287° West 428 493 37,800 600 Climbing Memphis Center
09:19AM 34.5900 -88.3236 287° West 428 493 38,000 60 Climbing Memphis Center
09:20AM 34.6233 -88.4542 287° West 418 481 38,000  Level Memphis Center
09:21AM 34.6564 -88.5694 289° West 410 472 38,000  Level Memphis Center
09:22AM 34.6897 -88.7053 287° West 416 479 38,000  Level Memphis Center
09:23AM 34.7289 -88.8461 289° West 432 497 38,000  Level Memphis Center
09:24AM 34.7639 -88.9869 287° West 439 505 38,000  Level Memphis Center
09:25AM 34.8008 -89.1281 288° West 439 505 38,000  Level Memphis Center
09:26AM 34.8378 -89.2717 287° West 439 505 38,000  Level Memphis Center
09:27AM 34.8744 -89.4156 287° West 439 505 38,000  Level Memphis Center
09:28AM 34.9172 -89.5694 289° West 434 499 38,000  Level Memphis Center
09:29AM 34.9472 -89.6908 287° West 451 519 38,000  Level Memphis Center
09:30AM 34.9875 -89.8578 286° West 467 537 38,000  Level Memphis Center
09:31AM 34.9986 -90.0022 275° West 453 521 38,000  Level Memphis Center
09:32AM 35.0092 -90.1467 275° West 435 501 38,000  Level Memphis Center
09:33AM 35.0197 -90.2911 275° West 435 501 38,000  Level Memphis Center
09:34AM 35.0322 -90.4483 276° West 430 495 38,000  Level Memphis Center
09:35AM 35.0425 -90.5931 275° West 430 495 38,000  Level Memphis Center
09:36AM 35.0547 -90.7325 276° West 424 488 38,000  Level Memphis Center
09:37AM 35.0625 -90.8797 274° West 424 488 38,000  Level Memphis Center
09:38AM 35.0744 -91.0194 276° West 424 488 38,000  Level Memphis Center
09:39AM 35.0842 -91.1639 275° West 424 488 38,000  Level Memphis Center
09:40AM 35.0956 -91.3061 276° West 424 488 38,000  Level Memphis Center
09:41AM 35.1031 -91.4308 274° West 424 488 38,000  Level Memphis Center
09:42AM 35.1100 -91.5706 274° West 424 488 38,000  Level Memphis Center
09:43AM 35.1189 -91.7153 274° West 424 488 38,000  Level Memphis Center
09:44AM 35.1319 -91.8603 276° West 424 488 38,000  Level Memphis Center
09:45AM 35.1403 -92.0100 274° West 429 494 38,000  Level Memphis Center
09:46AM 35.1489 -92.1575 274° West 435 501 38,000  Level Memphis Center
09:47AM 35.1592 -92.3078 275° West 440 506 38,000  Level Memphis Center
09:48AM 35.1669 -92.4578 274° West 440 506 38,000  Level Memphis Center
09:49AM 35.1769 -92.6078 275° West 440 506 38,000  Level Memphis Center
09:50AM 35.1864 -92.7706 274° West 451 519 38,000  Level Memphis Center
09:51AM 35.1958 -92.9208 274° West 444 511 38,000  Level Memphis Center
09:52AM 35.2053 -93.0761 274° West 444 511 38,000  Level Memphis Center
09:53AM 35.2122 -93.2239 273° West 450 518 38,000  Level Memphis Center
09:54AM 35.2172 -93.3689 272° West 443 510 38,000  Level Memphis Center
09:55AM 35.2261 -93.5192 274° West 443 510 38,000  Level Memphis Center
09:56AM 35.2325 -93.6669 273° West 443 510 38,000  Level Memphis Center
09:57AM 35.2411 -93.8172 274° West 443 510 38,000  Level Memphis Center
09:58AM 35.2492 -93.9700 274° West 443 510 38,000  Level Memphis Center
09:59AM 35.2553 -94.1203 273° West 443 510 38,000  Level Memphis Center
10:00AM 35.2631 -94.2708 274° West 443 510 38,000  Level Memphis Center
10:01AM 35.2686 -94.4236 273° West 443 510 38,000  Level Memphis Center
10:03AM 35.2814 -94.7178 273° West 459 528 38,000  Level Fort Worth Center
10:04AM 35.2889 -94.8753 273° West 459 528 38,000  Level Fort Worth Center
10:05AM 35.2939 -95.0303 272° West 459 528 38,000  Level Fort Worth Center
10:06AM 35.2989 -95.1803 272° West 459 528 38,000  Level Fort Worth Center
10:07AM 35.3056 -95.3353 273° West 459 528 38,000  Level Fort Worth Center
10:08AM 35.3103 -95.4878 272° West 459 528 38,000  Level Fort Worth Center
10:09AM 35.3167 -95.6428 273° West 459 528 38,000  Level Fort Worth Center
10:10AM 35.3228 -95.7978 273° West 459 528 38,000  Level Fort Worth Center
10:11AM 35.3247 -95.9428 271° West 447 514 38,000  Level Fort Worth Center
10:12AM 35.3283 -96.0981 272° West 447 514 38,000  Level Fort Worth Center
10:13AM 35.3319 -96.2481 272° West 447 514 38,000  Level Fort Worth Center
10:14AM 35.3356 -96.4008 272° West 447 514 38,000  Level Fort Worth Center
10:15AM 35.3408 -96.5508 273° West 447 514 38,000  Level Fort Worth Center
10:16AM 35.3458 -96.6983 272° West 442 509 38,000  Level Fort Worth Center
10:17AM 35.3486 -96.8433 271° West 437 503 38,000  Level Fort Worth Center
10:18AM 35.3514 -96.9858 271° West 432 497 38,000  Level Fort Worth Center
10:19AM 35.3539 -97.1286 271° West 427 491 38,000  Level Fort Worth Center
10:20AM 35.3622 -97.2736 274° West 422 486 38,000  Level Fort Worth Center
10:21AM 35.3625 -97.4161 270° West 422 486 38,000  Level Fort Worth Center
10:22AM 35.3644 -97.5536 271° West 427 491 38,000  Level Fort Worth Center
10:23AM 35.3664 -97.6986 271° West 432 497 38,000  Level Fort Worth Center
10:24AM 35.3700 -97.8439 272° West 432 497 38,000  Level Fort Worth Center
10:25AM 35.3714 -97.9889 271° West 432 497 38,000  Level Fort Worth Center
10:26AM 35.3750 -98.1417 272° West 438 504 38,000  Level Fort Worth Center
10:27AM 35.3761 -98.2894 271° West 438 504 38,000  Level Fort Worth Center
10:28AM 35.3789 -98.4447 271° West 443 510 38,000  Level Fort Worth Center
10:29AM 35.3778 -98.5925 270° West 443 510 38,000  Level Fort Worth Center
10:30AM 35.3803 -98.7425 271° West 443 510 38,000  Level Fort Worth Center
10:31AM 35.3808 -98.8953 270° West 443 510 38,000  Level Fort Worth Center
10:32AM 35.3808 -99.0431 270° West 438 504 38,000  Level Fort Worth Center
10:33AM 35.3831 -99.1983 271° West 443 510 38,000  Level Fort Worth Center
10:35AM 35.3839 -99.4419 270° West 444 511 38,000  Level Albuquerque Center
10:36AM 35.3844 -99.5944 270° West 444 511 38,000  Level Albuquerque Center
10:37AM 35.3844 -99.7778 270° West 445 512 38,000  Level Albuquerque Center
10:38AM 35.3844 -99.9297 270° West 445 512 38,000  Level Albuquerque Center
10:39AM 35.3833 -100.0825 270° West 445 512 38,000  Level Albuquerque Center
10:40AM 35.3828 -100.2344 270° West 445 512 38,000  Level Albuquerque Center
10:41AM 35.3836 -100.3881 270° West 447 514 38,000  Level Albuquerque Center
10:42AM 35.3814 -100.5369 269° West 442 509 38,000  Level Albuquerque Center
10:43AM 35.3808 -100.6872 270° West 444 511 38,000  Level Albuquerque Center
10:44AM 35.3789 -100.8667 269° West 442 509 38,000  Level Albuquerque Center
10:45AM 35.3775 -101.0167 269° West 442 509 38,000  Level Albuquerque Center
10:46AM 35.3756 -101.1636 269° West 436 502 38,000  Level Albuquerque Center
10:47AM 35.3739 -101.3167 269° West 433 498 38,000  Level Albuquerque Center
10:48AM 35.3742 -101.4639 270° West 431 496 38,000  Level Albuquerque Center
10:49AM 35.3736 -101.6086 270° West 425 489 38,000  Level Albuquerque Center
10:50AM 35.3706 -101.7661 269° West 423 487 38,000  Level Albuquerque Center
10:51AM 35.3678 -101.9114 269° West 423 487 38,000  Level Albuquerque Center
10:52AM 35.3608 -102.0508 267° West 427 491 38,000  Level Albuquerque Center
10:53AM 35.3578 -102.1936 269° West 424 488 38,000  Level Albuquerque Center
10:54AM 35.3536 -102.3669 268° West 426 490 38,000  Level Albuquerque Center
10:55AM 35.3503 -102.5136 268° West 431 496 38,000  Level Albuquerque Center
10:56AM 35.3469 -102.6681 269° West 429 494 38,000  Level Albuquerque Center
10:57AM 35.3439 -102.8164 269° West 431 496 38,000  Level Albuquerque Center
10:58AM 35.3406 -102.9647 268° West 432 497 38,000  Level Albuquerque Center
10:59AM 35.3358 -103.1139 268° West 434 499 38,000  Level Albuquerque Center
11:00AM 35.3317 -103.2639 268° West 436 502 38,000  Level Albuquerque Center
11:01AM 35.3269 -103.4142 268° West 438 504 38,000  Level Albuquerque Center
11:02AM 35.3222 -103.5656 268° West 440 506 38,000  Level Albuquerque Center
11:03AM 35.3164 -103.7408 268° West 439 505 38,000  Level Albuquerque Center
11:04AM 35.3114 -103.8925 268° West 442 509 38,000  Level Albuquerque Center
11:06AM 35.3069 -104.0261 268° West 444 511 38,000  Level Albuquerque Center
11:07AM 35.3003 -104.2064 267° West 442 509 38,000  Level Albuquerque Center
11:08AM 35.2942 -104.3556 267° West 442 509 38,000  Level Albuquerque Center
11:09AM 35.2889 -104.5047 268° West 441 507 38,000  Level Albuquerque Center
11:10AM 35.2800 -104.6656 266° West 444 511 38,000  Level Albuquerque Center
11:11AM 35.2742 -104.8172 267° West 443 510 38,000  Level Albuquerque Center
11:12AM 35.2675 -104.9683 267° West 442 509 38,000  Level Albuquerque Center
11:13AM 35.2606 -105.1194 267° West 442 509 38,000  Level Albuquerque Center
11:14AM 35.2539 -105.2694 267° West 440 506 38,000  Level Albuquerque Center
11:15AM 35.2456 -105.4203 266° West 441 507 38,000  Level Albuquerque Center
11:16AM 35.2383 -105.5978 267° West 443 510 38,000  Level Albuquerque Center
11:17AM 35.2306 -105.7486 266° West 442 509 38,000  Level Albuquerque Center
11:18AM 35.2219 -105.9008 266° West 445 512 38,000  Level Albuquerque Center
11:19AM 35.2142 -106.0522 266° West 443 510 38,000  Level Albuquerque Center
11:20AM 35.2064 -106.2036 266° West 443 510 38,000  Level Albuquerque Center
11:21AM 35.1986 -106.3683 267° West 444 511 38,000  Level Albuquerque Center
11:22AM 35.1903 -106.5194 266° West 446 513 38,000  Level Albuquerque Center
11:23AM 35.1817 -106.6847 266° West 446 513 38,000  Level Albuquerque Center
11:24AM 35.1758 -106.8292 267° West 445 512 38,000  Level Albuquerque Center
11:25AM 35.1619 -107.0006 264° West 448 516 38,000  Level Albuquerque Center
11:26AM 35.1533 -107.1456 266° West 447 514 38,000  Level Albuquerque Center
11:27AM 35.1428 -107.2992 265° West 458 527 38,000  Level Albuquerque Center
11:28AM 35.1328 -107.4511 265° West 453 521 38,000  Level Albuquerque Center
11:29AM 35.1214 -107.6100 265° West 448 516 38,000  Level Albuquerque Center
11:30AM 35.1106 -107.7753 265° West 440 506 38,000  Level Albuquerque Center
11:31AM 35.1014 -107.9147 265° West 433 498 38,000  Level Albuquerque Center
11:32AM 35.0911 -108.0794 266° West 434 499 38,000  Level Albuquerque Center
11:33AM 35.0814 -108.2211 265° West 436 502 38,000  Level Albuquerque Center
11:34AM 35.0694 -108.3869 265° West 437 503 38,000  Level Albuquerque Center
11:35AM 35.0592 -108.5281 265° West 436 502 38,000  Level Albuquerque Center
11:37AM 35.0489 -108.6697 265° West 437 503 38,000  Level Albuquerque Center
11:38AM 35.0369 -108.8356 265° West 438 504 38,000  Level Albuquerque Center
11:39AM 35.0264 -108.9786 265° West 440 506 38,000  Level Albuquerque Center
11:40AM 35.0136 -109.1444 265° West 439 505 38,000  Level Albuquerque Center
11:41AM 35.0019 -109.2869 264° West 439 505 38,000  Level Albuquerque Center
11:42AM 34.9892 -109.4544 265° West 442 509 38,000  Level Albuquerque Center
11:43AM 34.9781 -109.5994 265° West 444 511 38,000  Level Albuquerque Center
11:44AM 34.9631 -109.7694 264° West 450 518 38,000  Level Albuquerque Center
11:45AM 34.9519 -109.9189 265° West 456 525 38,000  Level Albuquerque Center
11:46AM 34.9411 -110.0678 265° West 458 527 38,000  Level Albuquerque Center
11:47AM 34.9242 -110.2364 263° West 452 520 38,000  Level Albuquerque Center
11:48AM 34.9108 -110.3819 264° West 451 519 38,000  Level Albuquerque Center
11:49AM 34.8939 -110.5511 263° West 450 518 38,000  Level Albuquerque Center
11:50AM 34.8808 -110.6958 264° West 449 517 38,000  Level Albuquerque Center
11:51AM 34.8647 -110.8358 262° West 452 520 38,000  Level Albuquerque Center
11:52AM 34.8475 -111.0169 263° West 452 520 38,000  Level Albuquerque Center
11:53AM 34.8344 -111.1728 264° West 461 531 38,000  Level Albuquerque Center
11:54AM 34.8206 -111.3225 264° West 453 521 38,000  Level Albuquerque Center
11:55AM 34.8047 -111.4719 263° West 449 517 38,000  Level Albuquerque Center
11:56AM 34.7911 -111.6197 264° West 444 511 38,000  Level Albuquerque Center
11:57AM 34.7739 -111.7922 263° West 445 512 38,000  Level Albuquerque Center
11:58AM 34.7567 -111.9456 262° West 444 511 38,000  Level Albuquerque Center
11:59AM 34.7431 -112.0906 264° West 439 505 38,000  Level Albuquerque Center
12:00PM 34.7275 -112.2381 263° West 440 506 38,000  Level Albuquerque Center
12:01PM 34.7125 -112.3825 263° West 443 510 38,000  Level Albuquerque Center
12:02PM 34.6964 -112.5303 262° West 442 509 38,000  Level Albuquerque Center
12:03PM 34.6722 -112.7086 261° West 445 512 38,000  Level Albuquerque Center
12:04PM 34.6475 -112.8569 259° West 446 513 38,000  Level Albuquerque Center
12:05PM 34.6217 -113.0075 258° West 450 518 38,000  Level Albuquerque Center
12:06PM 34.5953 -113.1575 258° West 453 521 38,000  Level Albuquerque Center
12:07PM 34.5692 -113.3075 258° West 455 524 38,000  Level Albuquerque Center
12:08PM 34.5414 -113.4575 257° West 457 526 38,000  Level Albuquerque Center
12:09PM 34.5147 -113.6089 258° West 459 528 38,000  Level Albuquerque Center
12:11PM 34.4836 -113.7869 258° West 458 527 38,000  Level Albuquerque Center
12:12PM 34.4567 -113.9392 258° West 459 528 38,000  Level Albuquerque Center
12:13PM 34.4294 -114.0875 257° West 456 525 38,000  Level Albuquerque Center
12:13PM 34.4069 -114.2175 258° West 455 524 38,000  Level Los Angeles Center
12:14PM 34.3797 -114.3683 258° West 461 531 38,000  Level Los Angeles Center
12:16PM 34.3522 -114.5194 258° West 461 531 38,000  Level Los Angeles Center
12:17PM 34.3178 -114.6986 257° West 458 527 38,000  Level Los Angeles Center
12:18PM 34.2889 -114.8486 257° West 458 527 38,000  Level Los Angeles Center
12:19PM 34.2661 -114.9692 257° West 461 531 38,000  Level Los Angeles Center
12:20PM 34.2317 -115.1503 257° West 462 532 38,000  Level Los Angeles Center
12:21PM 34.2033 -115.3000 257° West 460 529 38,000  Level Los Angeles Center
12:22PM 34.1747 -115.4508 257° West 461 531 38,000  Level Los Angeles Center
12:23PM 34.1397 -115.6319 257° West 464 534 38,000 -300 Level Los Angeles Center
12:24PM 34.1114 -115.7811 257° West 460 529 37,400 -780 Descending Los Angeles Center
12:25PM 34.0925 -115.9014 259° West 459 528 36,400 -1,320 Descending Los Angeles Center
12:26PM 34.0661 -116.0861 260° West 466 536 34,700 -2,340 Descending Los Angeles Center
12:27PM 34.0414 -116.2447 259° West 479 551 31,600 -3,780 Descending Los Angeles Center
12:28PM 34.0131 -116.4406 260° West 496 571 27,000 -3,600 Descending Los Angeles Center
12:29PM 33.9953 -116.6050 263° West 498 573 24,200 -2,700 Descending Los Angeles Center
12:30PM 33.9800 -116.7925 264° West 472 543 20,900 -2,640 Descending Los Angeles Center
12:31PM 33.9683 -116.9417 265° West 455 524 18,300 -1,980 Descending Los Angeles Center
12:32PM 33.9567 -117.0842 264° West 432 497 16,900 -1,200 Descending Los Angeles Center
12:33PM 33.9464 -117.2128 265° West 353 406 15,900 -1,200 Descending Los Angeles Center
12:34PM 33.9361 -117.3250 264° West 340 391 14,400 -1,440 Descending Los Angeles Center
12:35PM 33.9533 -117.4328 281° West 336 387 13,000 -1,500 Descending Los Angeles Center
12:36PM 33.9950 -117.5494 293° West 321 369 11,300 -1,500 Descending Los Angeles Center
12:37PM 34.0111 -117.6489 281° West 313 360 10,000 -960 Descending Los Angeles Center
12:39PM 34.0014 -117.7514 264° West 308 354 9,400 -780 Descending Los Angeles Center
12:40PM 33.9922 -117.8450 263° West 292 336 8,400 -1,200 Descending Los Angeles Center
12:41PM 33.9839 -117.9264 263° West 261 300 7,000 -1,260 Descending Los Angeles Center
12:42PM 33.9756 -118.0067 263° West 211 243 5,800 -960 Descending Los Angeles Center
12:43PM 33.9706 -118.0683 264° West 192 221 5,100 -840 Descending Los Angeles Center
12:44PM 33.9625 -118.1314 261° West 190 219 4,100 -1,020 Descending Los Angeles Center